Time;durP1;ratioP1;P1;durP2;ratioP2;P2;SDS_P1;SDS_P2;PMS_P1;PMS_P2;Temp;Humidity;BMP_temperature;BMP_pressure;BME280_temperature;BME280_humidity;BME280_pressure;Samples;Min_cycle;Max_cycle;Signal;HPM_P1;HPM_P2
2022/07/08 00:00:33;;;;;;;9.03;3.80;;;19.90;74.40;;;;;;2092239;28;20037;-87
2022/07/08 00:01:34;;;;;;;10.35;3.20;;;19.90;74.50;;;;;;2105998;28;20067;-87
2022/07/08 00:02:34;;;;;;;8.80;3.60;;;19.90;74.40;;;;;;2092268;28;20105;-87
2022/07/08 00:03:35;;;;;;;6.78;3.65;;;19.90;74.40;;;;;;2091977;28;20040;-87
2022/07/08 00:04:36;;;;;;;6.77;3.27;;;19.80;74.40;;;;;;2091665;28;20056;-88
2022/07/08 00:05:38;;;;;;;11.38;3.65;;;19.90;74.50;;;;;;2100283;28;20474;-87
2022/07/08 00:06:39;;;;;;;12.65;3.88;;;19.90;74.50;;;;;;2092017;28;20037;-88
2022/07/08 00:07:40;;;;;;;9.17;3.83;;;19.90;74.50;;;;;;2091987;28;20029;-88
2022/07/08 00:08:40;;;;;;;8.75;3.25;;;19.80;74.40;;;;;;2092015;28;20036;-87
2022/07/08 00:09:41;;;;;;;7.90;3.30;;;19.90;74.60;;;;;;2083839;28;20129;-87
2022/07/08 00:10:42;;;;;;;9.03;3.73;;;19.90;74.60;;;;;;2083620;28;20041;-87
2022/07/08 00:11:43;;;;;;;7.60;3.20;;;19.80;74.50;;;;;;2083095;28;20048;-88
2022/07/08 00:12:44;;;;;;;5.57;3.10;;;19.80;74.50;;;;;;2099343;28;20032;-87
2022/07/08 00:13:45;;;;;;;5.93;3.15;;;19.80;74.50;;;;;;2091815;28;20028;-87
2022/07/08 00:14:46;;;;;;;5.83;3.20;;;19.80;74.50;;;;;;2083730;28;20495;-87
2022/07/08 00:15:47;;;;;;;8.55;2.90;;;19.80;74.50;;;;;;2088286;28;20059;-87
2022/07/08 00:16:48;;;;;;;8.73;3.10;;;19.80;74.60;;;;;;2100530;28;20032;-87
2022/07/08 00:17:49;;;;;;;6.43;3.00;;;19.80;74.50;;;;;;2106793;28;20042;-87
2022/07/08 00:18:50;;;;;;;7.55;3.42;;;19.80;74.60;;;;;;2098582;28;20443;-88
2022/07/08 00:19:51;;;;;;;9.50;2.97;;;19.80;74.60;;;;;;2091932;28;20022;-87
2022/07/08 00:20:52;;;;;;;14.17;3.60;;;19.80;74.60;;;;;;2091977;28;20025;-88
2022/07/08 00:21:53;;;;;;;9.23;2.42;;;19.80;74.60;;;;;;2092244;28;20025;-88
2022/07/08 00:22:54;;;;;;;6.45;3.10;;;19.80;74.50;;;;;;2098861;28;20113;-87
2022/07/08 00:23:55;;;;;;;9.45;3.10;;;19.80;74.60;;;;;;2100058;28;20035;-87
2022/07/08 00:24:56;;;;;;;6.70;2.72;;;19.80;74.60;;;;;;2083082;28;20384;-87
2022/07/08 00:25:58;;;;;;;7.78;2.95;;;19.80;74.50;;;;;;2100171;28;20039;-87
2022/07/08 00:26:59;;;;;;;8.00;2.60;;;19.80;74.50;;;;;;2091754;28;20059;-87
2022/07/08 00:28:00;;;;;;;3.90;2.45;;;19.80;74.60;;;;;;2090323;28;20043;-87
2022/07/08 00:29:01;;;;;;;5.77;2.53;;;19.70;74.50;;;;;;2091719;28;20040;-87
2022/07/08 00:30:03;;;;;;;5.77;2.93;;;19.80;74.70;;;;;;2091576;28;20040;-87
2022/07/08 00:31:04;;;;;;;6.05;2.95;;;19.70;74.60;;;;;;2087212;28;20262;-87
2022/07/08 00:32:05;;;;;;;6.93;2.80;;;19.80;74.70;;;;;;2100179;28;20056;-88
2022/07/08 00:33:06;;;;;;;8.07;2.88;;;19.80;74.70;;;;;;2108397;28;20265;-88
2022/07/08 00:34:07;;;;;;;11.60;3.40;;;19.80;74.60;;;;;;2095168;28;20061;-88
2022/07/08 00:35:08;;;;;;;7.67;3.10;;;19.70;74.60;;;;;;2100130;28;20056;-88
2022/07/08 00:36:09;;;;;;;6.68;3.15;;;19.70;74.60;;;;;;2095784;28;20039;-87
2022/07/08 00:37:10;;;;;;;7.17;2.70;;;19.80;74.70;;;;;;2091053;28;20482;-87
2022/07/08 00:38:11;;;;;;;7.33;2.70;;;19.80;74.80;;;;;;2089697;28;20332;-87
2022/07/08 00:39:12;;;;;;;6.97;3.00;;;19.80;74.80;;;;;;2098545;28;20747;-87
2022/07/08 00:40:13;;;;;;;6.18;2.92;;;19.70;74.70;;;;;;2100163;28;20250;-87
2022/07/08 00:41:15;;;;;;;4.70;2.80;;;19.80;74.70;;;;;;2097213;28;20021;-88
2022/07/08 00:42:16;;;;;;;5.35;3.05;;;19.70;74.70;;;;;;2083459;28;20113;-88
2022/07/08 00:43:36;;;;;;;7.43;3.22;;;19.80;74.70;;;;;;2090216;28;20029;-87
2022/07/08 00:44:38;;;;;;;9.20;2.55;;;19.70;74.70;;;;;;2096566;28;20101;-87
2022/07/08 00:45:39;;;;;;;6.38;2.60;;;19.80;74.80;;;;;;2091868;28;20259;-87
2022/07/08 00:46:39;;;;;;;5.95;3.08;;;19.70;74.70;;;;;;2091674;28;20026;-87
2022/07/08 00:47:40;;;;;;;6.75;2.78;;;19.80;74.80;;;;;;2084452;28;20026;-87
2022/07/08 00:48:43;;;;;;;6.87;3.07;;;19.70;74.80;;;;;;2091766;28;20375;-87
2022/07/08 00:49:44;;;;;;;8.25;2.90;;;19.70;74.80;;;;;;2098797;28;20028;-88
2022/07/08 00:50:45;;;;;;;8.35;3.35;;;19.70;74.70;;;;;;2097427;28;20268;-88
2022/07/08 00:51:47;;;;;;;7.13;2.90;;;19.70;74.80;;;;;;2107573;28;20024;-87
2022/07/08 00:52:48;;;;;;;6.60;2.63;;;19.70;74.80;;;;;;2095263;28;20028;-87
2022/07/08 00:53:52;;;;;;;10.70;2.88;;;19.70;74.80;;;;;;2091558;28;20036;-87
2022/07/08 00:54:53;;;;;;;6.32;2.78;;;19.70;74.80;;;;;;2089413;28;20482;-87
2022/07/08 00:55:55;;;;;;;8.68;3.25;;;19.70;74.80;;;;;;2093909;28;20431;-88
2022/07/08 00:56:57;;;;;;;5.88;2.72;;;19.70;74.90;;;;;;2099996;28;20057;-88
2022/07/08 00:57:59;;;;;;;9.75;3.17;;;19.70;74.90;;;;;;2091059;28;20115;-87
2022/07/08 00:59:00;;;;;;;5.50;2.63;;;19.70;74.80;;;;;;2100007;28;20273;-87
2022/07/08 01:00:02;;;;;;;6.22;2.63;;;19.70;74.90;;;;;;2091285;28;20036;-87
2022/07/08 01:01:03;;;;;;;6.30;3.30;;;19.70;74.90;;;;;;2092943;28;20024;-87
2022/07/08 01:02:04;;;;;;;8.23;2.92;;;19.70;74.90;;;;;;2091543;28;20099;-88
2022/07/08 01:03:05;;;;;;;6.32;3.05;;;19.70;74.90;;;;;;2097249;28;20020;-87
2022/07/08 01:04:07;;;;;;;7.22;3.50;;;19.70;75.00;;;;;;2091653;28;20021;-87
2022/07/08 01:05:08;;;;;;;7.35;3.10;;;19.70;75.00;;;;;;2090867;28;20025;-88
2022/07/08 01:06:09;;;;;;;10.63;2.80;;;19.60;75.00;;;;;;2088877;28;20033;-87
2022/07/08 01:07:10;;;;;;;10.07;2.90;;;19.60;74.90;;;;;;2083442;28;20022;-87
2022/07/08 01:08:11;;;;;;;9.32;3.13;;;19.60;75.00;;;;;;2088715;28;20686;-88
2022/07/08 01:09:14;;;;;;;7.45;3.10;;;19.60;75.00;;;;;;2083341;28;20091;-88
2022/07/08 01:10:15;;;;;;;6.07;2.92;;;19.60;75.00;;;;;;2092210;28;20033;-87
2022/07/08 01:11:16;;;;;;;5.95;2.83;;;19.70;75.10;;;;;;2090999;28;20331;-88
2022/07/08 01:12:17;;;;;;;8.77;3.20;;;19.60;75.00;;;;;;2083350;28;20037;-88
2022/07/08 01:13:18;;;;;;;5.65;2.80;;;19.60;75.00;;;;;;2091408;28;20126;-88
2022/07/08 01:14:19;;;;;;;11.95;3.42;;;19.60;75.00;;;;;;2083384;28;20037;-87
2022/07/08 01:15:21;;;;;;;5.17;2.70;;;19.60;75.00;;;;;;2083298;28;20053;-86
2022/07/08 01:16:21;;;;;;;6.63;2.80;;;19.60;75.00;;;;;;2077650;28;20044;-88
2022/07/08 01:17:27;;;;;;;6.30;2.83;;;19.60;75.00;;;;;;2091488;28;20032;-88
2022/07/08 01:18:30;;;;;;;7.53;3.10;;;19.60;75.10;;;;;;2094767;28;20160;-88
2022/07/08 01:19:34;;;;;;;6.03;2.90;;;19.60;75.10;;;;;;2090460;28;20266;-88
2022/07/08 01:20:38;;;;;;;4.85;3.13;;;19.60;75.10;;;;;;2100091;28;20269;-88
2022/07/08 01:21:39;;;;;;;5.00;3.20;;;19.60;75.00;;;;;;2091433;28;20284;-87
2022/07/08 01:22:40;;;;;;;6.50;3.22;;;19.60;75.10;;;;;;2074867;28;20299;-88
2022/07/08 01:23:41;;;;;;;6.10;3.50;;;19.60;75.20;;;;;;2083123;28;20088;-88
2022/07/08 01:24:42;;;;;;;9.10;3.43;;;19.60;75.10;;;;;;2083734;28;20065;-87
2022/07/08 01:25:43;;;;;;;7.03;2.90;;;19.60;75.10;;;;;;2083138;28;20459;-88
2022/07/08 01:26:44;;;;;;;9.77;3.47;;;19.60;75.20;;;;;;2091447;28;20027;-88
2022/07/08 01:27:45;;;;;;;5.00;3.08;;;19.60;75.10;;;;;;2091458;28;20021;-88
2022/07/08 01:28:46;;;;;;;9.32;3.42;;;19.60;75.20;;;;;;2098401;28;20025;-88
2022/07/08 01:29:47;;;;;;;12.37;4.10;;;19.60;75.20;;;;;;2091269;28;20044;-88
2022/07/08 01:30:47;;;;;;;8.55;3.50;;;19.60;75.20;;;;;;2083095;28;20069;-87
2022/07/08 01:31:52;;;;;;;7.50;3.40;;;19.50;75.20;;;;;;2098863;28;20102;-87
2022/07/08 01:32:53;;;;;;;8.57;3.75;;;19.50;75.10;;;;;;2091811;28;20033;-87
2022/07/08 01:33:54;;;;;;;8.50;4.32;;;19.60;75.20;;;;;;2091392;28;20266;-88
2022/07/08 01:34:55;;;;;;;7.10;3.47;;;19.60;75.20;;;;;;2091310;28;20025;-87
2022/07/08 01:35:55;;;;;;;10.23;3.87;;;19.50;75.20;;;;;;2083036;28;20025;-88
2022/07/08 01:36:56;;;;;;;5.87;3.40;;;19.60;75.20;;;;;;2082951;28;20064;-87
2022/07/08 01:37:57;;;;;;;8.93;3.70;;;19.50;75.20;;;;;;2077597;28;20025;-88
2022/07/08 01:38:58;;;;;;;6.90;3.37;;;19.60;75.30;;;;;;2087203;28;20032;-88
2022/07/08 01:39:58;;;;;;;5.80;3.37;;;19.50;75.10;;;;;;2075884;28;20033;-87
2022/07/08 01:41:00;;;;;;;7.10;3.87;;;19.50;75.10;;;;;;2091302;28;20078;-87
2022/07/08 01:42:00;;;;;;;9.10;3.28;;;19.50;75.20;;;;;;2099359;28;20032;-87
2022/07/08 01:43:02;;;;;;;6.27;3.20;;;19.50;75.20;;;;;;2099600;28;20471;-87
2022/07/08 01:44:03;;;;;;;6.00;3.10;;;19.50;75.20;;;;;;2092596;28;20391;-87
2022/07/08 01:45:04;;;;;;;7.70;3.05;;;19.50;75.30;;;;;;2077595;28;20049;-87
2022/07/08 01:46:05;;;;;;;6.60;3.03;;;19.50;75.20;;;;;;2091258;28;20099;-87
2022/07/08 01:47:06;;;;;;;5.43;2.70;;;19.50;75.20;;;;;;2091160;28;20020;-87
2022/07/08 01:48:07;;;;;;;9.00;3.17;;;19.50;75.10;;;;;;2091205;28;20039;-87
2022/07/08 01:49:08;;;;;;;6.10;3.40;;;19.50;75.20;;;;;;2091261;28;20033;-87
2022/07/08 01:50:09;;;;;;;7.40;3.42;;;19.50;75.10;;;;;;2091187;28;20025;-88
2022/07/08 01:51:10;;;;;;;6.07;3.00;;;19.50;75.20;;;;;;2090511;28;20080;-88
2022/07/08 01:52:11;;;;;;;8.93;3.40;;;19.50;75.20;;;;;;2086576;28;20060;-87
2022/07/08 01:53:12;;;;;;;6.90;2.80;;;19.50;75.20;;;;;;2091140;28;20025;-87
2022/07/08 01:54:13;;;;;;;7.40;3.42;;;19.50;75.20;;;;;;2083044;28;20037;-87
2022/07/08 01:55:14;;;;;;;6.10;3.40;;;19.40;75.20;;;;;;2091016;28;20025;-88
2022/07/08 01:56:14;;;;;;;9.77;3.30;;;19.40;75.10;;;;;;2077436;28;20042;-87
2022/07/08 01:57:15;;;;;;;9.67;3.90;;;19.40;75.10;;;;;;2074904;28;20034;-87
2022/07/08 01:58:17;;;;;;;5.53;2.77;;;19.40;75.10;;;;;;2082324;28;20022;-88
2022/07/08 01:59:17;;;;;;;9.50;3.15;;;19.40;75.10;;;;;;2079338;28;20026;-87
2022/07/08 02:00:19;;;;;;;6.47;3.17;;;19.40;75.20;;;;;;2099416;28;20036;-88
2022/07/08 02:01:20;;;;;;;7.20;3.08;;;19.40;75.20;;;;;;2087866;28;20017;-88
2022/07/08 02:02:21;;;;;;;6.10;3.30;;;19.40;75.20;;;;;;2082870;28;20029;-87
2022/07/08 02:03:22;;;;;;;8.48;3.50;;;19.40;75.10;;;;;;2090782;28;20093;-88
2022/07/08 02:04:23;;;;;;;5.28;2.90;;;19.40;75.20;;;;;;2082066;28;20103;-87
2022/07/08 02:05:26;;;;;;;7.37;3.57;;;19.40;75.30;;;;;;2074183;28;20033;-87
2022/07/08 02:06:28;;;;;;;5.25;2.67;;;19.40;75.30;;;;;;2084984;28;20039;-88
2022/07/08 02:07:31;;;;;;;8.10;2.90;;;19.40;75.30;;;;;;2091523;28;20297;-88
2022/07/08 02:08:32;;;;;;;7.40;3.10;;;19.40;75.20;;;;;;2091067;28;20273;-87
2022/07/08 02:09:34;;;;;;;5.95;3.00;;;19.40;75.30;;;;;;2091105;28;20258;-87
2022/07/08 02:13:13;;;;;;;10.60;3.08;;;19.40;75.30;;;;;;2098533;28;20254;-87
2022/07/08 02:14:15;;;;;;;8.32;3.70;;;19.40;75.30;;;;;;2090963;28;20266;-88
2022/07/08 02:15:16;;;;;;;7.72;3.05;;;19.40;75.30;;;;;;2082889;28;20033;-87
2022/07/08 02:16:16;;;;;;;6.73;3.20;;;19.30;75.20;;;;;;2091043;28;20386;-88
2022/07/08 02:17:19;;;;;;;7.38;3.95;;;19.30;75.20;;;;;;2091002;28;20451;-88
2022/07/08 02:18:20;;;;;;;7.10;3.55;;;19.40;75.20;;;;;;2090456;28;20040;-88
2022/07/08 02:19:20;;;;;;;7.93;3.00;;;19.30;76.00;;;;;;2091045;28;20265;-88
2022/07/08 02:20:21;;;;;;;10.17;3.97;;;19.40;75.30;;;;;;2090911;28;20017;-88
2022/07/08 02:21:22;;;;;;;6.50;3.45;;;19.40;75.30;;;;;;2082890;28;20022;-88
2022/07/08 02:22:24;;;;;;;10.10;4.40;;;19.40;75.30;;;;;;2090099;28;20029;-88
2022/07/08 02:23:24;;;;;;;8.35;3.97;;;19.30;75.30;;;;;;2089634;28;20093;-88
2022/07/08 02:24:25;;;;;;;7.57;4.13;;;19.30;75.20;;;;;;2090362;28;20099;-88
2022/07/08 02:25:26;;;;;;;9.80;4.13;;;19.30;75.20;;;;;;2086617;28;20029;-87
2022/07/08 02:26:27;;;;;;;11.38;4.78;;;19.30;75.30;;;;;;2082860;28;20041;-87
2022/07/08 02:27:28;;;;;;;8.43;4.50;;;19.30;75.30;;;;;;2089658;28;20040;-87
2022/07/08 02:28:28;;;;;;;8.00;3.97;;;19.30;75.30;;;;;;2090943;28;20463;-87
2022/07/08 02:29:29;;;;;;;9.77;4.43;;;19.30;75.30;;;;;;2090859;28;20281;-87
2022/07/08 02:30:30;;;;;;;7.87;4.00;;;19.30;75.30;;;;;;2090742;28;20036;-87
2022/07/08 02:31:31;;;;;;;7.72;3.78;;;19.30;75.30;;;;;;2090222;28;20073;-87
2022/07/08 02:32:32;;;;;;;9.02;3.78;;;19.30;75.30;;;;;;2097862;28;20044;-87
2022/07/08 02:33:33;;;;;;;7.60;3.67;;;19.30;75.40;;;;;;2099090;28;20028;-88
2022/07/08 02:34:34;;;;;;;6.63;4.27;;;19.30;75.40;;;;;;2090878;28;20041;-88
2022/07/08 02:35:34;;;;;;;9.80;3.80;;;19.30;75.30;;;;;;2086313;28;20029;-88
2022/07/08 02:36:35;;;;;;;6.97;3.53;;;19.30;75.40;;;;;;2090751;28;20090;-87
2022/07/08 02:37:36;;;;;;;6.50;3.22;;;19.30;75.30;;;;;;2090187;28;20029;-88
2022/07/08 02:38:37;;;;;;;6.57;3.17;;;19.30;75.30;;;;;;2082560;28;20367;-88
2022/07/08 02:39:38;;;;;;;6.57;3.47;;;19.30;75.30;;;;;;2082584;28;20262;-87
2022/07/08 02:40:39;;;;;;;6.67;3.07;;;19.30;75.40;;;;;;2086072;28;20036;-88
2022/07/08 02:41:40;;;;;;;5.83;3.20;;;19.30;75.40;;;;;;2090969;28;20029;-87
2022/07/08 02:42:41;;;;;;;5.05;3.25;;;19.20;75.30;;;;;;2090714;28;20578;-87
2022/07/08 02:43:42;;;;;;;5.67;3.00;;;19.20;75.30;;;;;;2082481;28;20037;-87
2022/07/08 02:44:42;;;;;;;7.70;3.40;;;19.30;75.30;;;;;;2098434;28;20028;-87
2022/07/08 02:45:43;;;;;;;5.53;3.20;;;19.20;75.30;;;;;;2095773;28;20028;-88
2022/07/08 02:46:44;;;;;;;11.80;3.33;;;19.20;75.30;;;;;;2082649;28;20071;-88
2022/07/08 02:47:45;;;;;;;7.50;3.17;;;19.20;75.30;;;;;;2096940;28;20038;-87
2022/07/08 02:48:46;;;;;;;5.22;3.33;;;19.30;75.40;;;;;;2091097;28;20041;-87
2022/07/08 02:49:47;;;;;;;10.30;4.20;;;19.20;75.30;;;;;;2097801;28;20062;-87
2022/07/08 02:50:48;;;;;;;8.48;3.70;;;19.20;75.30;;;;;;2087703;28;20044;-87
2022/07/08 02:51:49;;;;;;;9.43;3.80;;;19.20;75.30;;;;;;2081939;28;20021;-87
2022/07/08 02:52:49;;;;;;;9.37;3.90;;;19.20;75.30;;;;;;2088359;28;20028;-87
2022/07/08 02:53:50;;;;;;;7.95;3.92;;;19.20;75.40;;;;;;2090902;28;20739;-88
2022/07/08 02:54:51;;;;;;;10.20;4.10;;;19.20;75.40;;;;;;2099107;28;20359;-88
2022/07/08 02:55:52;;;;;;;8.80;4.23;;;19.20;75.40;;;;;;2098804;28;20082;-87
2022/07/08 02:56:52;;;;;;;13.57;3.93;;;19.20;75.30;;;;;;2090725;28;20115;-88
2022/07/08 02:57:53;;;;;;;9.57;4.07;;;19.20;75.30;;;;;;2081918;28;20116;-87
2022/07/08 02:58:54;;;;;;;5.95;3.67;;;19.20;75.30;;;;;;2082494;28;20104;-88
2022/07/08 02:59:55;;;;;;;8.77;3.77;;;19.20;75.40;;;;;;2081704;28;20025;-88
2022/07/08 03:00:56;;;;;;;7.00;3.00;;;19.20;75.40;;;;;;2090604;28;20253;-88
2022/07/08 03:01:56;;;;;;;9.57;3.93;;;19.20;75.40;;;;;;2099208;28;20016;-87
2022/07/08 03:02:57;;;;;;;6.07;3.00;;;19.10;75.40;;;;;;2107544;28;20028;-88
2022/07/08 03:03:58;;;;;;;9.30;3.22;;;19.20;75.40;;;;;;2107235;28;20031;-87
2022/07/08 03:05:00;;;;;;;5.65;2.78;;;19.20;75.40;;;;;;2090050;28;20140;-87
2022/07/08 03:06:01;;;;;;;6.97;3.00;;;19.10;75.30;;;;;;2084564;28;20025;-88
2022/07/08 03:07:02;;;;;;;8.30;3.83;;;19.10;75.40;;;;;;2090819;28;20040;-87
2022/07/08 03:08:03;;;;;;;5.38;3.10;;;19.20;75.40;;;;;;2082485;28;20736;-87
2022/07/08 03:09:04;;;;;;;9.05;3.35;;;19.10;75.30;;;;;;2091027;28;20095;-88
2022/07/08 03:10:05;;;;;;;6.03;3.20;;;19.10;75.40;;;;;;2097721;28;20203;-88
2022/07/08 03:11:06;;;;;;;4.03;2.92;;;19.10;75.40;;;;;;2090309;28;20056;-88
2022/07/08 03:12:07;;;;;;;4.80;2.70;;;19.10;75.40;;;;;;2090754;28;20040;-88
2022/07/08 03:13:08;;;;;;;5.38;2.97;;;19.10;75.30;;;;;;2090643;28;20025;-88
2022/07/08 03:14:09;;;;;;;4.63;2.67;;;19.10;75.30;;;;;;2082323;28;20061;-87
2022/07/08 03:15:10;;;;;;;6.87;3.00;;;19.10;75.30;;;;;;2089396;28;20391;-87
2022/07/08 03:16:10;;;;;;;5.95;2.63;;;19.10;75.40;;;;;;2082292;28;20025;-88
2022/07/08 03:17:11;;;;;;;4.77;3.00;;;19.10;75.50;;;;;;2099051;28;20032;-88
2022/07/08 03:18:12;;;;;;;4.80;2.97;;;19.10;75.40;;;;;;2095205;28;20082;-88
2022/07/08 03:19:13;;;;;;;5.55;2.90;;;19.10;75.40;;;;;;2084147;28;20072;-87
2022/07/08 03:20:14;;;;;;;6.20;3.15;;;19.10;75.30;;;;;;2090685;28;20036;-87
2022/07/08 03:21:15;;;;;;;6.87;2.93;;;19.10;75.30;;;;;;2085215;28;20025;-87
2022/07/08 03:22:16;;;;;;;4.07;2.83;;;19.10;75.40;;;;;;2100807;28;20030;-88
2022/07/08 03:23:17;;;;;;;4.17;2.73;;;19.10;75.40;;;;;;2100490;28;20123;-88
2022/07/08 03:24:17;;;;;;;8.63;3.03;;;19.10;75.40;;;;;;2083447;28;20044;-86
2022/07/08 03:25:18;;;;;;;6.63;2.47;;;19.10;75.50;;;;;;2096891;28;20013;-88
2022/07/08 03:26:19;;;;;;;4.22;2.60;;;19.10;75.40;;;;;;2099749;28;20378;-88
2022/07/08 03:27:20;;;;;;;7.07;3.10;;;19.10;75.40;;;;;;2092457;28;20036;-88
2022/07/08 03:28:21;;;;;;;6.13;3.10;;;19.10;75.30;;;;;;2104135;28;20028;-88
2022/07/08 03:29:21;;;;;;;7.37;2.80;;;19.10;75.40;;;;;;2100592;28;20028;-88
2022/07/08 03:30:22;;;;;;;5.80;2.80;;;19.00;75.30;;;;;;2092318;28;20056;-87
2022/07/08 03:31:23;;;;;;;6.57;2.95;;;19.10;75.40;;;;;;2091886;28;20486;-87
2022/07/08 03:32:25;;;;;;;6.30;2.67;;;19.10;75.40;;;;;;2100593;28;20032;-87
2022/07/08 03:33:26;;;;;;;5.38;2.67;;;19.10;75.40;;;;;;2097507;28;20068;-88
2022/07/08 03:34:27;;;;;;;4.45;2.35;;;19.00;75.30;;;;;;2084081;28;20266;-87
2022/07/08 03:35:28;;;;;;;4.57;2.67;;;19.00;75.40;;;;;;2090903;28;20036;-87
2022/07/08 03:36:29;;;;;;;4.80;2.83;;;19.10;75.40;;;;;;2100373;28;20485;-87
2022/07/08 03:37:30;;;;;;;5.25;2.63;;;19.00;75.40;;;;;;2100567;28;20470;-87
2022/07/08 03:38:31;;;;;;;6.23;2.87;;;19.00;75.40;;;;;;2100063;28;20031;-87
2022/07/08 03:39:32;;;;;;;6.47;2.97;;;19.00;75.40;;;;;;2092245;28;20447;-87
2022/07/08 03:41:52;;;;;;;6.40;3.05;;;19.00;75.40;;;;;;2102844;28;20451;-87
2022/07/08 03:42:53;;;;;;;5.95;3.28;;;19.00;75.40;;;;;;2092198;28;20270;-88
2022/07/08 03:43:53;;;;;;;7.22;2.72;;;19.00;75.50;;;;;;2083994;28;20048;-87
2022/07/08 03:44:54;;;;;;;5.43;2.97;;;19.00;75.50;;;;;;2083232;28;20022;-87
2022/07/08 03:45:55;;;;;;;6.57;3.13;;;19.00;75.50;;;;;;2092075;28;20029;-88
2022/07/08 03:46:56;;;;;;;8.90;3.20;;;19.00;75.50;;;;;;2092090;28;20043;-87
2022/07/08 03:47:57;;;;;;;8.30;3.07;;;18.90;75.50;;;;;;2083822;28;20482;-87
2022/07/08 03:48:58;;;;;;;4.82;3.00;;;19.00;75.60;;;;;;2097287;28;20035;-87
2022/07/08 03:49:59;;;;;;;4.47;3.00;;;18.90;75.50;;;;;;2086667;28;20477;-87
2022/07/08 03:51:00;;;;;;;4.55;2.60;;;18.90;75.50;;;;;;2083498;28;20344;-87
2022/07/08 03:52:01;;;;;;;6.57;3.00;;;19.00;75.50;;;;;;2092212;28;20112;-87
2022/07/08 03:53:02;;;;;;;9.27;2.92;;;19.00;75.60;;;;;;2105719;28;20099;-87
2022/07/08 03:54:03;;;;;;;7.37;2.93;;;19.00;75.50;;;;;;2092034;28;20040;-88
2022/07/08 03:55:04;;;;;;;4.20;2.73;;;18.90;75.50;;;;;;2083964;28;20033;-87
2022/07/08 03:56:06;;;;;;;6.07;3.08;;;18.90;75.50;;;;;;2087871;28;20045;-87
2022/07/08 03:57:07;;;;;;;8.80;2.97;;;18.90;75.60;;;;;;2092082;28;20481;-87
2022/07/08 03:58:07;;;;;;;5.33;2.60;;;18.90;75.60;;;;;;2091467;28;20025;-87
2022/07/08 03:59:08;;;;;;;4.60;3.13;;;18.90;75.60;;;;;;2091853;28;20029;-88
2022/07/08 04:00:09;;;;;;;6.27;2.83;;;18.90;75.60;;;;;;2083244;28;20017;-88
2022/07/08 04:01:10;;;;;;;5.30;2.50;;;18.90;75.60;;;;;;2083699;28;20053;-88
2022/07/08 04:02:11;;;;;;;7.00;2.65;;;18.90;75.60;;;;;;2099156;28;20043;-87
2022/07/08 04:03:12;;;;;;;5.97;3.08;;;18.90;75.50;;;;;;2100346;28;20020;-87
2022/07/08 04:04:13;;;;;;;6.20;2.97;;;18.90;75.50;;;;;;2099459;28;20032;-87
2022/07/08 04:05:14;;;;;;;8.67;2.90;;;18.90;75.50;;;;;;2100449;28;20101;-87
2022/07/08 04:06:15;;;;;;;6.07;2.97;;;18.90;75.50;;;;;;2100360;28;20044;-87
2022/07/08 04:07:15;;;;;;;6.27;2.63;;;18.90;75.60;;;;;;2092010;28;20039;-88
2022/07/08 04:08:16;;;;;;;6.80;2.67;;;18.90;75.60;;;;;;2100356;28;20101;-88
2022/07/08 04:09:17;;;;;;;6.40;2.90;;;18.90;75.50;;;;;;2108779;28;20048;-87
2022/07/08 04:10:18;;;;;;;3.78;2.53;;;18.90;75.60;;;;;;2108544;28;20043;-87
2022/07/08 04:11:19;;;;;;;5.85;2.65;;;18.90;75.60;;;;;;2091258;28;20473;-87
2022/07/08 04:12:20;;;;;;;5.10;2.83;;;18.80;75.50;;;;;;2083707;28;20177;-87
2022/07/08 04:13:23;;;;;;;6.20;3.03;;;18.90;75.70;;;;;;2087988;28;20051;-88
2022/07/08 04:14:24;;;;;;;7.40;3.10;;;18.80;75.60;;;;;;2092523;28;20037;-88
2022/07/08 04:15:25;;;;;;;5.75;2.80;;;18.80;75.50;;;;;;2099193;28;20668;-88
2022/07/08 04:16:25;;;;;;;6.57;3.03;;;18.80;75.60;;;;;;2083411;28;20026;-88
2022/07/08 04:17:27;;;;;;;6.18;2.50;;;18.90;75.70;;;;;;2083804;28;20030;-88
2022/07/08 04:18:27;;;;;;;10.40;3.05;;;18.80;75.60;;;;;;2095326;28;20405;-87
2022/07/08 04:19:28;;;;;;;4.23;2.50;;;18.80;75.60;;;;;;2092004;28;20033;-88
2022/07/08 04:20:29;;;;;;;5.43;2.73;;;18.80;75.70;;;;;;2091906;28;20047;-87
2022/07/08 04:21:30;;;;;;;9.85;2.88;;;18.80;75.60;;;;;;2100368;28;20451;-88
2022/07/08 04:22:31;;;;;;;5.43;2.60;;;18.80;75.60;;;;;;2100368;28;20028;-88
2022/07/08 04:23:32;;;;;;;5.37;2.87;;;18.80;75.60;;;;;;2091844;28;20045;-88
2022/07/08 04:24:32;;;;;;;5.22;3.20;;;18.80;75.60;;;;;;2091283;28;20043;-88
2022/07/08 04:25:33;;;;;;;9.27;3.37;;;18.80;75.70;;;;;;2091708;28;20439;-88
2022/07/08 04:26:34;;;;;;;4.50;2.83;;;18.80;75.60;;;;;;2091844;28;20475;-88
2022/07/08 04:27:35;;;;;;;5.32;2.55;;;18.80;75.70;;;;;;2108468;28;20394;-88
2022/07/08 04:28:36;;;;;;;9.23;3.70;;;18.80;75.70;;;;;;2094755;28;20028;-88
2022/07/08 04:29:37;;;;;;;6.93;3.33;;;18.80;75.60;;;;;;2091782;28;20044;-88
2022/07/08 04:30:37;;;;;;;7.80;3.10;;;18.80;75.70;;;;;;2091799;28;20059;-88
2022/07/08 04:31:38;;;;;;;9.57;3.30;;;18.80;75.60;;;;;;2082838;28;20368;-89
2022/07/08 04:32:39;;;;;;;7.87;3.30;;;18.80;75.70;;;;;;2092028;28;20100;-88
2022/07/08 04:33:40;;;;;;;7.37;3.07;;;18.80;75.70;;;;;;2097051;28;20059;-88
2022/07/08 04:34:41;;;;;;;4.73;2.90;;;18.70;75.60;;;;;;2100022;28;20028;-86
2022/07/08 04:35:42;;;;;;;5.20;3.00;;;18.80;75.80;;;;;;2102783;28;20032;-88
2022/07/08 04:36:42;;;;;;;5.28;2.92;;;18.70;75.70;;;;;;2092108;28;20052;-88
2022/07/08 04:37:43;;;;;;;5.87;2.60;;;18.70;75.60;;;;;;2090814;28;20544;-87
2022/07/08 04:38:44;;;;;;;5.13;3.00;;;18.80;75.70;;;;;;2083297;28;20026;-87
2022/07/08 04:39:45;;;;;;;7.05;3.20;;;18.80;75.70;;;;;;2091738;28;20033;-87
2022/07/08 04:40:46;;;;;;;7.47;3.27;;;18.80;75.70;;;;;;2083483;28;20088;-87
2022/07/08 04:41:46;;;;;;;6.65;3.03;;;18.70;75.70;;;;;;2083616;28;20053;-88
2022/07/08 04:42:47;;;;;;;5.93;2.73;;;18.70;75.70;;;;;;2091474;28;20563;-88
2022/07/08 04:43:48;;;;;;;8.38;2.85;;;18.70;75.70;;;;;;2091786;28;20029;-87
2022/07/08 04:44:49;;;;;;;6.70;2.40;;;18.70;75.70;;;;;;2099495;28;20028;-88
2022/07/08 04:45:50;;;;;;;5.33;2.70;;;18.70;75.60;;;;;;2091611;28;20100;-88
2022/07/08 04:46:50;;;;;;;5.33;2.63;;;18.70;75.60;;;;;;2090167;28;20035;-88
2022/07/08 04:47:52;;;;;;;7.60;2.83;;;18.70;75.60;;;;;;2091561;28;20060;-88
2022/07/08 04:48:53;;;;;;;4.75;2.90;;;18.70;75.50;;;;;;2083439;28;20025;-87
2022/07/08 04:49:53;;;;;;;6.75;3.70;;;18.70;75.50;;;;;;2083350;28;20037;-89
2022/07/08 04:50:54;;;;;;;6.40;3.40;;;18.70;75.50;;;;;;2082737;28;20021;-89
2022/07/08 04:51:55;;;;;;;5.53;3.05;;;18.70;75.50;;;;;;2083518;28;20102;-88
2022/07/08 04:52:56;;;;;;;4.78;2.88;;;18.70;75.50;;;;;;2083357;28;20025;-88
2022/07/08 04:53:57;;;;;;;5.33;3.17;;;18.70;75.50;;;;;;2091635;28;20363;-88
2022/07/08 04:54:58;;;;;;;8.20;3.53;;;18.70;75.50;;;;;;2091552;28;20123;-88
2022/07/08 04:55:58;;;;;;;4.90;2.95;;;18.70;75.50;;;;;;2091549;28;20049;-87
2022/07/08 04:56:59;;;;;;;4.47;3.17;;;18.60;75.50;;;;;;2091945;28;20063;-88
2022/07/08 04:58:03;;;;;;;6.67;3.30;;;18.60;75.60;;;;;;2090765;28;20071;-88
2022/07/08 04:59:04;;;;;;;4.45;2.97;;;18.70;75.60;;;;;;2091881;28;20040;-87
2022/07/08 05:00:05;;;;;;;5.00;3.22;;;18.70;75.80;;;;;;2083305;28;20720;-87
2022/07/08 05:01:06;;;;;;;5.10;3.25;;;18.70;75.70;;;;;;2091531;28;20407;-88
2022/07/08 05:02:07;;;;;;;6.40;3.67;;;18.70;75.70;;;;;;2108315;28;20020;-88
2022/07/08 05:03:07;;;;;;;9.37;3.53;;;18.70;75.70;;;;;;2108191;28;20446;-88
2022/07/08 05:04:08;;;;;;;5.80;3.13;;;18.60;75.60;;;;;;2099879;28;20385;-87
2022/07/08 05:05:09;;;;;;;8.37;3.67;;;18.60;75.70;;;;;;2099090;28;20038;-88
2022/07/08 05:06:10;;;;;;;5.90;3.38;;;18.60;75.80;;;;;;2083383;28;20030;-89
2022/07/08 05:07:10;;;;;;;6.80;3.20;;;18.60;75.80;;;;;;2083505;28;20037;-88
2022/07/08 05:08:11;;;;;;;7.67;3.70;;;18.60;75.70;;;;;;2083225;28;20033;-88
2022/07/08 05:09:12;;;;;;;9.20;3.70;;;18.60;75.80;;;;;;2083898;28;20037;-87
2022/07/08 05:10:13;;;;;;;6.43;3.33;;;18.60;75.80;;;;;;2099724;28;20036;-87
2022/07/08 05:11:14;;;;;;;8.52;3.50;;;18.60;75.90;;;;;;2094024;28;20135;-88
2022/07/08 05:12:15;;;;;;;6.22;3.55;;;18.60;75.80;;;;;;2091438;28;20471;-87
2022/07/08 05:13:16;;;;;;;6.53;3.37;;;18.60;75.90;;;;;;2091449;28;20059;-88
2022/07/08 05:14:17;;;;;;;6.20;3.40;;;18.60;75.90;;;;;;2083218;28;20043;-87
2022/07/08 05:15:18;;;;;;;7.90;3.72;;;18.60;75.90;;;;;;2083188;28;20034;-88
2022/07/08 05:16:19;;;;;;;6.10;3.38;;;18.60;75.90;;;;;;2094392;28;20028;-88
2022/07/08 05:17:19;;;;;;;9.30;3.40;;;18.60;75.90;;;;;;2091343;28;20044;-88
2022/07/08 05:18:20;;;;;;;7.67;3.80;;;18.60;75.90;;;;;;2082333;28;20028;-88
2022/07/08 05:19:21;;;;;;;9.18;3.55;;;18.60;76.00;;;;;;2083120;28;20029;-89
2022/07/08 05:20:22;;;;;;;6.07;3.33;;;18.60;76.00;;;;;;2083275;28;20149;-88
2022/07/08 05:21:23;;;;;;;5.55;3.70;;;18.60;76.00;;;;;;2096540;28;20048;-87